Time;durP1;ratioP1;P1;durP2;ratioP2;P2;SDS_P1;SDS_P2;PMS_P1;PMS_P2;Temp;Humidity;BMP_temperature;BMP_pressure;BME280_temperature;BME280_humidity;BME280_pressure;Samples;Min_cycle;Max_cycle;Signal;HPM_P1;HPM_P2
2022/07/14 00:02:08;;;;;;;7.00;4.78;;;;;;;20.09;99.10;98355.31;5017195;28;20024;-73
2022/07/14 00:04:35;;;;;;;6.68;4.50;;;;;;;20.04;100.00;98350.00;5016798;28;20105;-74
2022/07/14 00:07:00;;;;;;;9.82;4.75;;;;;;;20.02;100.00;98357.84;5016840;28;20033;-73
2022/07/14 00:09:25;;;;;;;8.52;4.68;;;;;;;19.94;100.00;98356.00;5017369;28;20029;-72
2022/07/14 00:11:51;;;;;;;7.82;4.43;;;;;;;19.89;100.00;98364.53;5014520;28;20109;-73
2022/07/14 00:14:16;;;;;;;5.75;4.93;;;;;;;20.08;100.00;98364.00;5007281;28;20404;-73
2022/07/14 00:16:41;;;;;;;9.00;4.60;;;;;;;19.97;100.00;98360.88;4997148;28;20035;-73
2022/07/14 00:19:08;;;;;;;10.55;4.60;;;;;;;19.93;100.00;98362.69;5008787;28;20033;-73
2022/07/14 00:21:33;;;;;;;6.20;4.30;;;;;;;19.88;100.00;98354.63;5016703;28;20029;-73
2022/07/14 00:23:59;;;;;;;7.88;4.50;;;;;;;19.91;100.00;98353.91;5016639;28;20030;-73
2022/07/14 00:26:24;;;;;;;7.38;4.45;;;;;;;19.89;100.00;98358.19;5016874;28;20501;-72
2022/07/14 00:28:50;;;;;;;5.57;4.55;;;;;;;19.83;100.00;98359.59;5016718;28;20084;-73
2022/07/14 00:31:15;;;;;;;6.55;4.43;;;;;;;19.83;100.00;98357.59;5004883;28;20076;-74
2022/07/14 00:33:41;;;;;;;7.88;4.25;;;;;;;19.85;100.00;98360.03;4996956;28;20058;-74
2022/07/14 00:36:07;;;;;;;5.55;4.32;;;;;;;19.90;100.00;98363.41;4997095;28;20045;-73
2022/07/14 00:38:33;;;;;;;6.70;4.78;;;;;;;19.88;100.00;98365.72;4997078;28;20228;-75
2022/07/14 00:40:59;;;;;;;7.15;4.43;;;;;;;19.73;100.00;98355.31;4997349;28;20576;-74
2022/07/14 00:43:24;;;;;;;6.78;4.75;;;;;;;19.69;100.00;98346.03;4997148;28;20030;-73
2022/07/14 00:45:50;;;;;;;7.85;4.65;;;;;;;19.63;100.00;98352.97;4983996;28;20093;-73
2022/07/14 00:48:24;;;;;;;7.00;5.05;;;;;;;19.67;100.00;98353.91;4997242;28;20061;-75
2022/07/14 00:50:51;;;;;;;6.35;4.43;;;;;;;19.59;100.00;98349.25;4997061;28;20395;-73
2022/07/14 00:53:16;;;;;;;8.73;4.93;;;;;;;19.56;100.00;98347.16;4994591;28;20398;-73
2022/07/14 00:55:43;;;;;;;6.65;4.50;;;;;;;19.53;100.00;98358.94;4994082;28;20147;-74
2022/07/14 00:58:10;;;;;;;6.97;4.45;;;;;;;19.45;100.00;98355.09;4994175;28;20613;-75
2022/07/14 01:00:35;;;;;;;5.20;4.22;;;;;;;19.47;100.00;98361.16;5008982;28;20049;-74
2022/07/14 01:03:01;;;;;;;6.75;4.43;;;;;;;19.45;100.00;98357.88;4992568;28;20018;-74
2022/07/14 01:05:26;;;;;;;7.82;4.47;;;;;;;19.41;100.00;98364.47;4994109;28;20073;-74
2022/07/14 01:07:52;;;;;;;6.07;4.30;;;;;;;19.45;100.00;98360.66;4993857;28;20645;-74
2022/07/14 01:10:17;;;;;;;5.10;4.38;;;;;;;19.39;100.00;98352.91;4994290;28;20113;-73
2022/07/14 01:12:46;;;;;;;6.40;4.53;;;;;;;19.37;100.00;98349.63;4993817;28;20043;-73
2022/07/14 01:15:14;;;;;;;5.72;4.55;;;;;;;19.44;100.00;98350.72;4993737;28;20046;-73
2022/07/14 01:17:40;;;;;;;6.65;4.63;;;;;;;19.39;100.00;98344.56;4993524;28;20029;-74
2022/07/14 01:20:06;;;;;;;8.55;5.00;;;;;;;19.32;100.00;98344.31;4993364;28;20030;-74
2022/07/14 01:22:31;;;;;;;6.90;4.90;;;;;;;19.30;100.00;98341.06;4993741;28;20038;-73
2022/07/14 01:24:57;;;;;;;8.38;4.80;;;;;;;19.38;100.00;98345.72;5005410;28;20034;-73
2022/07/14 01:27:22;;;;;;;5.93;4.47;;;;;;;19.45;100.00;98352.34;5012263;28;20121;-74
2022/07/14 01:29:48;;;;;;;10.95;5.32;;;;;;;19.28;100.00;98346.97;5013036;28;20810;-74
2022/07/14 01:32:13;;;;;;;6.95;5.00;;;;;;;19.22;100.00;98342.78;5012966;28;20025;-73
2022/07/14 01:34:38;;;;;;;6.78;4.70;;;;;;;19.31;100.00;98345.47;5012697;28;20124;-73
2022/07/14 01:37:04;;;;;;;7.57;4.97;;;;;;;19.36;100.00;98348.81;5012852;28;20042;-73
2022/07/14 01:39:29;;;;;;;10.65;5.60;;;;;;;19.44;100.00;98344.38;5013332;28;20135;-74
2022/07/14 01:41:54;;;;;;;6.80;5.40;;;;;;;19.44;100.00;98338.81;5012933;28;20026;-74
2022/07/14 01:44:21;;;;;;;6.80;5.20;;;;;;;19.47;100.00;98360.31;5012700;28;20037;-75
2022/07/14 01:46:46;;;;;;;6.10;4.30;;;;;;;19.47;100.00;98354.78;5012560;28;20040;-73
2022/07/14 01:49:12;;;;;;;7.13;5.03;;;;;;;19.48;100.00;98356.41;5012662;28;20518;-73
2022/07/14 01:51:37;;;;;;;8.90;4.93;;;;;;;19.49;100.00;98352.47;5012635;28;20030;-73
2022/07/14 01:54:06;;;;;;;10.50;5.45;;;;;;;19.47;100.00;98344.50;5012698;28;20030;-73
2022/07/14 01:56:33;;;;;;;8.65;6.32;;;;;;;19.49;100.00;98342.19;5012470;28;20025;-73
2022/07/14 01:59:00;;;;;;;8.77;5.53;;;;;;;19.49;100.00;98342.19;5012286;28;20784;-74
2022/07/14 02:01:41;;;;;;;9.65;5.55;;;;;;;19.48;100.00;98339.75;5012394;28;20026;-74
2022/07/14 02:04:09;;;;;;;8.77;4.90;;;;;;;19.36;100.00;98346.03;5011720;28;20064;-74
2022/07/14 02:06:35;;;;;;;8.88;5.00;;;;;;;19.29;100.00;98342.22;5012877;28;20025;-74
2022/07/14 02:09:00;;;;;;;5.10;4.35;;;;;;;19.27;100.00;98340.59;5015867;28;20056;-73
2022/07/14 02:14:10;;;;;;;7.40;4.47;;;;;;;19.31;100.00;98328.81;5011654;28;20036;-74
2022/07/14 02:16:36;;;;;;;7.03;4.68;;;;;;;19.43;100.00;98335.22;5011927;28;20026;-74
2022/07/14 02:19:02;;;;;;;6.13;4.55;;;;;;;19.41;100.00;98333.97;5012059;28;20116;-74
2022/07/14 02:21:28;;;;;;;8.68;4.45;;;;;;;19.39;100.00;98347.34;5012131;28;20034;-73
2022/07/14 02:23:54;;;;;;;7.65;4.28;;;;;;;19.31;100.00;98340.72;5012222;28;20368;-74
2022/07/14 02:26:19;;;;;;;5.93;4.38;;;;;;;19.39;100.00;98350.13;5011984;28;20486;-74
2022/07/14 02:28:45;;;;;;;6.07;4.50;;;;;;;19.48;100.00;98343.34;5012039;28;20116;-74
2022/07/14 02:31:11;;;;;;;9.35;4.80;;;;;;;19.42;100.00;98330.03;5011937;28;20020;-73
2022/07/14 02:33:37;;;;;;;6.40;4.30;;;;;;;19.43;100.00;98326.09;5011575;28;20060;-75
2022/07/14 02:36:04;;;;;;;7.60;4.85;;;;;;;19.50;100.00;98338.25;5011619;28;20495;-74
2022/07/14 02:38:29;;;;;;;9.52;5.10;;;;;;;19.49;100.00;98335.81;5011914;28;20062;-74
2022/07/14 02:40:55;;;;;;;8.00;5.30;;;;;;;19.43;100.00;98328.88;4994392;28;20052;-74
2022/07/14 02:43:20;;;;;;;9.13;5.53;;;;;;;19.49;100.00;98333.03;5011716;28;20037;-73
2022/07/14 02:45:45;;;;;;;6.95;4.88;;;;;;;19.52;100.00;98333.16;5011572;28;20481;-74
2022/07/14 02:48:11;;;;;;;6.93;5.00;;;;;;;19.44;100.00;98333.28;5011529;28;20036;-74
2022/07/14 02:50:36;;;;;;;10.43;5.60;;;;;;;19.46;100.00;98326.22;5011665;28;20061;-74
2022/07/14 02:53:03;;;;;;;6.57;5.22;;;;;;;19.46;100.00;98329.00;5011409;28;20022;-75
2022/07/14 02:55:29;;;;;;;7.80;5.20;;;;;;;19.36;100.00;98325.84;5011426;28;20057;-74
2022/07/14 02:57:54;;;;;;;6.00;4.70;;;;;;;19.33;100.00;98332.06;4994121;28;20470;-75
2022/07/14 03:00:20;;;;;;;6.80;5.00;;;;;;;19.43;100.00;98329.69;5011322;28;20449;-77
2022/07/14 03:02:45;;;;;;;6.50;5.28;;;;;;;19.45;100.00;98326.56;5011226;28;20113;-74
2022/07/14 03:05:11;;;;;;;6.80;5.10;;;;;;;19.45;100.00;98323.81;4993596;28;20118;-75
2022/07/14 03:07:36;;;;;;;6.35;4.60;;;;;;;19.46;100.00;98319.84;4993474;28;20033;-74
2022/07/14 03:10:01;;;;;;;8.25;5.72;;;;;;;19.41;100.00;98329.22;4993854;28;20040;-74
2022/07/14 03:12:27;;;;;;;7.35;5.32;;;;;;;19.45;100.00;98329.34;5011389;28;20034;-75
2022/07/14 03:14:52;;;;;;;6.63;5.20;;;;;;;19.46;100.00;98342.88;5011286;28;20050;-74
2022/07/14 03:17:18;;;;;;;6.70;4.78;;;;;;;19.48;100.00;98328.66;5010912;28;20053;-75
2022/07/14 03:19:44;;;;;;;10.02;5.45;;;;;;;19.38;100.00;98323.50;4993527;28;20087;-75
2022/07/14 03:22:09;;;;;;;6.43;5.18;;;;;;;19.36;100.00;98325.84;5011124;28;20059;-74
2022/07/14 03:24:34;;;;;;;7.28;5.30;;;;;;;19.52;100.00;98337.91;4993179;28;20073;-74
2022/07/14 03:27:00;;;;;;;6.93;4.90;;;;;;;19.45;100.00;98329.34;5011116;28;20156;-75
2022/07/14 03:29:27;;;;;;;9.82;5.60;;;;;;;19.39;100.00;98337.03;4993250;28;20113;-74
2022/07/14 03:31:53;;;;;;;9.48;5.20;;;;;;;19.42;100.00;98355.00;5011253;28;20030;-74
2022/07/14 03:34:18;;;;;;;9.10;5.68;;;;;;;19.50;100.00;98343.81;5010872;28;20064;-74
2022/07/14 03:36:43;;;;;;;9.52;4.93;;;;;;;19.45;100.00;98352.34;5010905;28;20130;-74
2022/07/14 03:39:10;;;;;;;9.60;5.03;;;;;;;19.67;100.00;98340.81;5011123;28;20030;-74
2022/07/14 03:41:36;;;;;;;10.65;4.82;;;;;;;20.39;99.99;98344.78;5011293;28;20107;-75
2022/07/14 03:44:01;;;;;;;8.63;6.03;;;;;;;20.96;94.09;98352.84;5011185;28;20034;-75
2022/07/14 03:46:27;;;;;;;8.80;4.65;;;;;;;21.47;90.60;98358.66;5000151;28;20488;-75
2022/07/14 03:48:52;;;;;;;9.30;5.32;;;;;;;22.01;86.06;98356.94;4974090;28;20033;-76
2022/07/14 03:51:17;;;;;;;7.68;5.70;;;;;;;22.62;82.76;98359.94;4991471;28;20498;-75
2022/07/14 03:53:43;;;;;;;9.88;5.55;;;;;;;22.82;78.10;98364.44;4991210;28;20038;-74
2022/07/14 03:56:08;;;;;;;10.35;5.43;;;;;;;22.18;80.91;98356.53;4991283;28;20027;-74
2022/07/14 03:58:33;;;;;;;7.40;5.20;;;;;;;22.51;80.71;98338.59;4991245;28;20024;-75
2022/07/14 04:00:59;;;;;;;8.68;4.97;;;;;;;22.85;77.05;98346.16;4973909;28;20035;-75
2022/07/14 04:03:24;;;;;;;8.82;5.25;;;;;;;21.88;82.24;98347.84;4973852;28;20027;-74
2022/07/14 04:05:49;;;;;;;5.25;4.60;;;;;;;21.23;86.25;98342.91;4991114;28;20049;-75
2022/07/14 04:08:15;;;;;;;6.90;5.10;;;;;;;20.75;89.21;98344.69;4991195;28;20118;-75
2022/07/14 04:10:40;;;;;;;6.30;4.85;;;;;;;20.45;92.41;98348.13;4993674;28;20546;-75
2022/07/14 04:13:05;;;;;;;7.07;5.00;;;;;;;20.21;94.29;98341.41;4996610;28;20387;-75
2022/07/14 04:15:31;;;;;;;7.18;5.60;;;;;;;20.13;95.33;98352.66;4994890;28;20061;-77
2022/07/14 04:17:57;;;;;;;10.18;5.55;;;;;;;20.03;95.94;98365.03;4993563;28;20026;-75
2022/07/14 04:20:23;;;;;;;7.70;5.20;;;;;;;19.94;97.77;98353.22;4995328;28;20038;-75
2022/07/14 04:22:49;;;;;;;10.68;5.20;;;;;;;19.78;99.11;98355.88;4991319;28;20026;-75
2022/07/14 04:25:15;;;;;;;7.43;5.05;;;;;;;19.82;99.20;98347.66;4990887;28;20117;-74
2022/07/14 04:27:42;;;;;;;9.52;5.32;;;;;;;19.86;99.80;98351.34;4974062;28;20034;-75
2022/07/14 04:30:09;;;;;;;8.35;4.80;;;;;;;19.94;99.16;98353.22;4977306;28;20015;-76
2022/07/14 04:32:35;;;;;;;10.48;5.35;;;;;;;20.09;98.66;98360.84;4994601;28;20455;-74
2022/07/14 04:35:00;;;;;;;9.65;4.72;;;;;;;20.25;95.91;98358.19;4994146;28;20149;-75
2022/07/14 04:37:26;;;;;;;7.85;5.20;;;;;;;20.26;95.11;98344.00;4994695;28;20543;-75
2022/07/14 04:39:53;;;;;;;6.90;5.22;;;;;;;20.49;94.67;98352.63;4994581;28;20034;-73
2022/07/14 04:42:18;;;;;;;6.82;5.75;;;;;;;20.80;91.21;98358.34;4998296;28;20446;-80
2022/07/14 04:44:43;;;;;;;5.78;5.10;;;;;;;21.53;87.05;98357.22;5013989;28;20034;-76
2022/07/14 04:47:09;;;;;;;9.48;5.38;;;;;;;21.54;87.01;98358.84;5012777;28;20375;-78
2022/07/14 04:52:18;;;;;;;11.48;6.45;;;;;;;21.66;85.65;98355.97;5012867;28;20113;-75
2022/07/14 04:54:45;;;;;;;9.48;6.15;;;;;;;21.58;86.20;98352.19;5012259;28;20105;-77
2022/07/14 05:00:03;;;;;;;9.50;6.25;;;;;;;22.12;81.57;98357.97;5004750;28;20128;-81
2022/07/14 05:02:28;;;;;;;7.38;5.20;;;;;;;21.78;82.68;98347.53;5012922;28;20022;-73
2022/07/14 05:05:05;;;;;;;9.27;5.55;;;;;;;21.64;86.67;98347.19;5012226;28;20022;-74
2022/07/14 05:07:31;;;;;;;9.70;5.28;;;;;;;21.72;84.94;98348.97;5013208;28;20050;-72
2022/07/14 05:09:56;;;;;;;6.95;5.45;;;;;;;21.89;83.91;98343.09;5013113;28;20505;-71
2022/07/14 05:12:21;;;;;;;8.48;5.72;;;;;;;21.83;83.65;98338.94;5013515;28;20041;-69
2022/07/14 05:14:47;;;;;;;9.18;6.53;;;;;;;21.72;83.40;98333.09;4994910;28;20018;-67
2022/07/14 05:17:13;;;;;;;8.48;5.72;;;;;;;22.17;80.98;98332.66;4993468;28;20032;-71
2022/07/14 05:19:38;;;;;;;7.07;5.30;;;;;;;22.42;78.26;98331.25;4992983;28;20030;-71
2022/07/14 05:22:04;;;;;;;7.78;5.93;;;;;;;22.43;78.17;98332.84;4998674;28;20446;-73
2022/07/14 05:24:30;;;;;;;9.77;6.07;;;;;;;22.67;77.58;98334.63;5011848;28;20038;-71
2022/07/14 05:26:58;;;;;;;7.53;5.32;;;;;;;22.99;75.02;98349.25;5009251;28;20022;-71
2022/07/14 05:29:23;;;;;;;8.02;5.65;;;;;;;23.13;74.18;98354.28;5009378;28;20036;-71
2022/07/14 05:31:49;;;;;;;7.93;5.80;;;;;;;23.34;73.18;98360.28;5010433;28;20022;-71
2022/07/14 05:34:14;;;;;;;8.80;5.32;;;;;;;23.51;73.32;98348.69;5010455;28;20570;-69
2022/07/14 05:36:39;;;;;;;7.30;5.30;;;;;;;23.55;72.05;98346.78;5011365;28;20062;-71
2022/07/14 05:39:05;;;;;;;14.75;6.43;;;;;;;23.13;74.14;98352.31;5009583;28;21455;-71
2022/07/14 05:41:30;;;;;;;12.55;5.80;;;;;;;23.11;75.69;98356.66;5012192;28;20057;-71
2022/07/14 05:43:56;;;;;;;11.60;5.88;;;;;;;23.68;74.13;98361.38;5012451;28;20033;-69
2022/07/14 05:46:21;;;;;;;12.95;5.38;;;;;;;24.10;72.02;98359.31;5011391;28;20025;-69
2022/07/14 05:48:46;;;;;;;12.45;5.53;;;;;;;24.29;70.99;98362.06;5012258;28;20030;-71
2022/07/14 05:51:16;;;;;;;8.88;5.15;;;;;;;24.08;72.13;98363.69;5011467;28;20077;-71
2022/07/14 05:53:43;;;;;;;10.95;5.60;;;;;;;24.00;70.90;98357.16;5011586;28;20470;-72
2022/07/14 05:56:13;;;;;;;9.20;5.75;;;;;;;23.78;72.00;98372.75;5011570;28;20030;-71
2022/07/14 05:58:39;;;;;;;8.80;5.75;;;;;;;23.74;72.46;98374.69;5011432;28;20030;-71
2022/07/14 06:01:07;;;;;;;10.15;5.25;;;;;;;23.90;71.93;98374.56;5010914;28;20487;-72
2022/07/14 06:03:32;;;;;;;15.40;5.88;;;;;;;23.64;72.61;98378.09;5011544;28;20359;-68
2022/07/14 06:06:00;;;;;;;10.43;5.70;;;;;;;23.96;72.70;98376.66;5012116;28;20113;-68
2022/07/14 06:08:25;;;;;;;11.15;5.55;;;;;;;24.18;70.58;98379.84;5012081;28;20022;-72
2022/07/14 06:10:50;;;;;;;8.98;5.57;;;;;;;24.63;68.32;98373.34;4994749;28;20029;-71
2022/07/14 06:13:16;;;;;;;10.73;6.32;;;;;;;24.55;67.65;98375.25;5011930;28;20579;-71
2022/07/14 06:15:44;;;;;;;8.85;5.30;;;;;;;24.50;67.15;98376.38;5011886;28;20026;-73
2022/07/14 06:18:10;;;;;;;13.15;5.75;;;;;;;24.43;66.75;98369.88;5011377;28;20135;-72
2022/07/14 06:20:36;;;;;;;22.77;10.38;;;;;;;24.87;66.17;98370.13;5011882;28;20030;-72
2022/07/14 06:23:01;;;;;;;28.92;13.00;;;;;;;24.89;64.67;98362.16;5011848;28;20093;-71
2022/07/14 06:25:27;;;;;;;33.58;14.20;;;;;;;24.96;65.66;98359.47;5012082;28;20386;-73
2022/07/14 06:27:52;;;;;;;24.00;12.23;;;;;;;25.16;64.00;98363.69;4994556;28;20021;-71
2022/07/14 06:30:17;;;;;;;27.80;11.80;;;;;;;25.21;62.98;98365.38;5015034;28;20118;-71
2022/07/14 06:32:44;;;;;;;25.52;12.68;;;;;;;25.07;63.37;98356.78;5013749;28;20045;-72
2022/07/14 06:35:11;;;;;;;27.33;11.98;;;;;;;24.78;63.67;98355.56;5011121;28;20057;-74
2022/07/14 06:37:36;;;;;;;21.63;10.88;;;;;;;24.97;65.49;98364.66;5010861;28;20091;-74
2022/07/14 06:40:06;;;;;;;24.52;10.70;;;;;;;25.10;63.77;98359.63;5011333;28;20068;-74
2022/07/14 06:42:33;;;;;;;19.95;7.70;;;;;;;24.81;63.76;98364.03;5011578;28;20025;-73
2022/07/14 06:44:58;;;;;;;13.57;6.65;;;;;;;24.62;63.82;98366.16;5011234;28;20030;-73
2022/07/14 06:47:23;;;;;;;17.70;7.20;;;;;;;24.65;65.40;98359.81;5011393;28;20490;-74
2022/07/14 06:49:49;;;;;;;12.43;6.00;;;;;;;24.72;64.64;98359.88;4993709;28;20108;-74
2022/07/14 06:52:14;;;;;;;15.90;6.78;;;;;;;24.95;64.17;98357.84;5010575;28;20033;-74
2022/07/14 06:54:39;;;;;;;15.52;6.20;;;;;;;25.58;63.48;98357.00;5011169;28;20026;-75
2022/07/14 06:57:05;;;;;;;15.48;7.28;;;;;;;25.23;62.82;98355.41;5011067;28;20112;-73
2022/07/14 06:59:32;;;;;;;15.93;6.72;;;;;;;25.56;62.67;98352.59;5010954;28;20052;-74
2022/07/14 07:01:57;;;;;;;17.55;6.32;;;;;;;25.66;60.84;98347.47;5011378;28;20032;-74
2022/07/14 07:04:23;;;;;;;10.85;6.07;;;;;;;25.91;60.07;98354.13;5011415;28;20038;-73
2022/07/14 07:06:50;;;;;;;16.15;6.75;;;;;;;26.03;58.83;98351.06;5011711;28;20064;-74
2022/07/14 07:09:17;;;;;;;9.75;5.63;;;;;;;26.32;57.95;98344.47;5011549;28;20051;-74
2022/07/14 07:11:45;;;;;;;11.38;5.03;;;;;;;27.15;55.87;98347.41;5011646;28;20104;-74
2022/07/14 07:14:12;;;;;;;7.53;3.85;;;;;;;27.35;54.80;98340.22;5010969;28;20026;-74
2022/07/14 07:16:38;;;;;;;7.03;4.00;;;;;;;27.92;53.72;98348.81;5011261;28;20041;-73
2022/07/14 07:19:03;;;;;;;6.75;3.95;;;;;;;28.13;53.06;98343.25;5010999;28;20022;-73
2022/07/14 07:21:29;;;;;;;5.28;4.20;;;;;;;28.46;52.25;98350.44;5011763;28;20491;-73
2022/07/14 07:23:55;;;;;;;4.53;3.80;;;;;;;28.84;51.61;98354.44;4994203;28;20029;-73
2022/07/14 07:26:24;;;;;;;9.68;4.25;;;;;;;28.69;51.06;98362.91;4994237;28;20076;-72
2022/07/14 07:28:52;;;;;;;5.40;3.97;;;;;;;28.95;50.54;98343.91;5011121;28;20463;-72
2022/07/14 07:31:18;;;;;;;8.10;4.10;;;;;;;28.87;50.24;98353.63;5012100;28;20029;-72
2022/07/14 07:33:43;;;;;;;6.03;3.72;;;;;;;28.82;49.84;98356.84;5012101;28;20022;-73
2022/07/14 07:36:09;;;;;;;8.48;4.03;;;;;;;28.44;50.26;98345.25;5011586;28;20034;-72
2022/07/14 07:38:34;;;;;;;7.35;3.85;;;;;;;28.54;50.25;98344.41;5011262;28;20526;-72
2022/07/14 07:41:02;;;;;;;8.00;4.15;;;;;;;29.32;50.50;98335.75;5011235;28;20038;-72
2022/07/14 07:43:28;;;;;;;6.72;3.97;;;;;;;29.87;46.81;98337.88;5010687;28;20471;-72
2022/07/14 07:45:53;;;;;;;6.38;4.05;;;;;;;30.35;46.59;98338.69;5011071;28;20108;-72
2022/07/14 07:48:19;;;;;;;7.10;3.92;;;;;;;30.84;46.44;98328.13;5010899;28;20060;-72
2022/07/14 07:50:45;;;;;;;7.93;4.10;;;;;;;31.31;44.98;98335.66;5010653;28;20122;-72
2022/07/14 07:53:11;;;;;;;8.75;3.72;;;;;;;31.39;44.78;98325.84;5010369;28;20064;-72
2022/07/14 07:55:38;;;;;;;5.43;3.95;;;;;;;30.45;46.45;98318.03;5010201;28;20026;-72
2022/07/14 07:58:04;;;;;;;3.88;3.20;;;;;;;29.84;46.15;98316.13;5010828;28;20387;-72
2022/07/14 08:00:30;;;;;;;9.90;3.95;;;;;;;29.54;47.53;98309.03;5010928;28;20030;-73
2022/07/14 08:02:56;;;;;;;6.93;3.67;;;;;;;30.50;46.30;98313.97;5013107;28;20076;-72
2022/07/14 08:05:25;;;;;;;6.72;3.85;;;;;;;31.00;45.51;98308.59;5014940;28;20026;-72
2022/07/14 08:07:51;;;;;;;5.43;3.33;;;;;;;31.23;43.53;98311.53;5014793;28;20037;-73
2022/07/14 08:10:17;;;;;;;7.45;4.13;;;;;;;31.44;43.77;98313.25;5014430;28;20034;-72
2022/07/14 08:12:43;;;;;;;4.13;3.13;;;;;;;31.93;42.46;98314.56;5014625;28;20017;-72
2022/07/14 08:15:09;;;;;;;6.28;3.25;;;;;;;32.86;41.04;98310.50;5014366;28;20061;-72
2022/07/14 08:17:35;;;;;;;5.93;3.33;;;;;;;33.84;38.90;98314.50;5014219;28;20140;-71
2022/07/14 08:20:01;;;;;;;4.10;3.28;;;;;;;36.21;34.19;98316.38;5014289;28;20033;-72
2022/07/14 08:22:27;;;;;;;7.35;3.55;;;;;;;38.29;30.74;98319.16;5014337;28;20032;-72
2022/07/14 08:24:54;;;;;;;6.18;3.40;;;;;;;38.86;29.62;98318.34;5014285;28;20109;-71
2022/07/14 08:27:20;;;;;;;5.68;3.22;;;;;;;39.76;28.44;98316.66;5014266;28;20042;-74
2022/07/14 08:29:46;;;;;;;7.13;3.40;;;;;;;39.81;27.62;98309.47;5013562;28;20045;-72
2022/07/14 08:32:12;;;;;;;6.10;3.38;;;;;;;40.14;27.87;98310.31;5013147;28;20387;-72
2022/07/14 08:34:39;;;;;;;7.00;3.22;;;;;;;40.86;26.64;98311.91;5012877;28;20471;-73
2022/07/14 08:37:05;;;;;;;4.97;3.47;;;;;;;38.81;28.74;98296.09;5013423;28;20033;-72
2022/07/14 08:39:31;;;;;;;3.75;3.10;;;;;;;38.61;29.85;98300.66;5015643;28;20025;-71
2022/07/14 08:41:59;;;;;;;4.78;3.13;;;;;;;39.50;28.32;98304.75;5021574;28;20113;-71
2022/07/14 08:44:25;;;;;;;5.97;3.83;;;;;;;37.92;29.81;98299.03;5021637;28;20084;-74
2022/07/14 08:46:51;;;;;;;7.18;3.50;;;;;;;37.87;30.72;98299.63;5015616;28;20168;-73
2022/07/14 08:49:17;;;;;;;4.35;3.42;;;;;;;37.16;31.42;98297.94;5013717;28;20017;-73
2022/07/14 08:51:44;;;;;;;20.60;9.55;;;;;;;37.03;31.50;98287.38;5005418;28;20014;-72
2022/07/14 08:54:09;;;;;;;5.68;3.80;;;;;;;36.92;33.01;98286.16;5013323;28;20053;-73
2022/07/14 08:56:39;;;;;;;6.90;4.57;;;;;;;35.75;34.36;98278.75;5013180;28;20395;-72
2022/07/14 08:59:05;;;;;;;6.40;3.50;;;;;;;35.04;35.88;98276.44;5010613;28;20018;-72
2022/07/14 09:01:31;;;;;;;8.25;4.35;;;;;;;34.33;35.86;98272.72;5012863;28;20109;-72
2022/07/14 09:03:57;;;;;;;4.97;3.50;;;;;;;34.12;36.56;98259.06;5012886;28;20117;-72
2022/07/14 09:06:50;;;;;;;4.68;3.65;;;;;;;34.23;36.98;98262.44;5012815;28;20057;-72
2022/07/14 09:09:24;;;;;;;4.43;3.63;;;;;;;33.97;38.68;98258.59;5005941;28;20049;-73
2022/07/14 09:12:06;;;;;;;5.65;3.55;;;;;;;33.76;38.94;98259.94;5011928;28;20030;-72
2022/07/14 09:17:26;;;;;;;7.63;4.47;;;;;;;32.78;40.12;98254.38;5012194;28;20037;-72
2022/07/14 09:20:07;;;;;;;6.57;3.30;;;;;;;32.14;41.81;98246.28;5012435;28;20036;-72
2022/07/14 09:22:33;;;;;;;9.32;3.40;;;;;;;32.40;40.76;98244.59;5010587;28;20025;-73
2022/07/14 09:24:58;;;;;;;8.45;3.17;;;;;;;31.29;42.39;98244.78;5011979;28;20077;-73
2022/07/14 09:27:25;;;;;;;4.70;3.58;;;;;;;31.31;42.65;98240.31;5008870;28;20022;-72
2022/07/14 09:29:57;;;;;;;7.95;3.10;;;;;;;31.81;42.21;98239.53;5011487;28;20034;-73
2022/07/14 09:33:00;;;;;;;3.55;3.20;;;;;;;32.33;41.59;98240.66;5011815;28;20022;-73
2022/07/14 09:35:33;;;;;;;4.30;3.60;;;;;;;31.79;42.43;98230.69;5008894;28;20042;-72
2022/07/14 09:37:58;;;;;;;5.40;3.53;;;;;;;31.47;43.00;98230.38;5013293;28;20025;-71
2022/07/14 09:40:31;;;;;;;6.05;3.70;;;;;;;32.14;41.79;98230.09;5012787;28;20052;-72
2022/07/14 09:43:01;;;;;;;6.20;3.53;;;;;;;31.96;41.30;98231.59;5007407;28;20025;-71
2022/07/14 09:45:35;;;;;;;4.53;3.22;;;;;;;31.39;41.77;98218.34;5011708;28;20112;-75
2022/07/14 09:48:06;;;;;;;6.37;3.57;;;;;;;30.40;44.05;98213.19;5012119;28;20026;-73
2022/07/14 09:50:36;;;;;;;5.10;3.30;;;;;;;30.74;43.70;98211.97;5012350;28;20686;-70
2022/07/14 09:53:14;;;;;;;7.25;3.75;;;;;;;31.23;44.28;98212.56;5013454;28;20026;-73
2022/07/14 09:55:50;;;;;;;11.43;3.97;;;;;;;32.38;41.52;98210.22;5009077;28;20330;-77
2022/07/14 09:58:15;;;;;;;3.60;2.90;;;;;;;32.12;41.01;98200.59;5012102;28;20053;-72
2022/07/14 10:00:54;;;;;;;6.25;3.08;;;;;;;31.59;42.17;98199.47;5011970;28;20057;-74
2022/07/14 10:03:20;;;;;;;5.70;3.28;;;;;;;31.09;42.66;98205.06;5012180;28;20030;-72
2022/07/14 10:05:46;;;;;;;5.38;3.28;;;;;;;31.03;43.47;98200.31;5011603;28;20450;-73
2022/07/14 10:08:12;;;;;;;5.78;3.30;;;;;;;31.83;42.32;98208.78;5011856;28;20036;-74
2022/07/14 10:10:38;;;;;;;4.55;3.40;;;;;;;32.43;41.25;98210.53;5011840;28;20032;-74
2022/07/14 10:13:05;;;;;;;5.45;3.28;;;;;;;33.29;39.13;98208.34;5008273;28;20116;-73
2022/07/14 10:15:31;;;;;;;3.80;3.40;;;;;;;33.76;38.25;98203.16;4987860;28;20049;-75
2022/07/14 10:17:59;;;;;;;5.00;3.53;;;;;;;32.67;39.91;98200.75;5007601;28;20041;-73
2022/07/14 10:20:25;;;;;;;5.63;3.65;;;;;;;31.63;41.45;98200.22;5005833;28;20025;-73
2022/07/14 10:22:54;;;;;;;4.53;3.67;;;;;;;31.63;42.80;98200.22;5007210;28;20041;-73
2022/07/14 10:25:26;;;;;;;8.18;3.58;;;;;;;31.27;43.44;98185.00;5007129;28;20026;-77
2022/07/14 10:27:52;;;;;;;7.65;3.50;;;;;;;31.38;43.62;98187.69;5009023;28;20046;-74
2022/07/14 10:30:18;;;;;;;4.57;3.42;;;;;;;32.00;42.21;98195.53;5006766;28;20505;-74
2022/07/14 10:33:04;;;;;;;4.10;3.17;;;;;;;32.33;40.77;98174.69;5008934;28;20084;-74
2022/07/14 10:36:04;;;;;;;3.90;3.10;;;;;;;32.93;40.08;98172.66;5006321;28;20548;-74
2022/07/14 10:38:47;;;;;;;6.40;3.13;;;;;;;33.33;39.27;98163.63;4990036;28;20066;-75
2022/07/14 10:41:50;;;;;;;4.18;3.45;;;;;;;33.32;39.62;98166.91;4989435;28;20033;-74
2022/07/14 10:44:17;;;;;;;8.05;3.40;;;;;;;33.26;39.53;98163.00;5007070;28;20029;-73
2022/07/14 10:46:45;;;;;;;7.18;3.10;;;;;;;32.73;38.53;98161.38;5007868;28;20105;-73
2022/07/14 10:49:12;;;;;;;3.55;3.10;;;;;;;32.40;39.08;98163.22;5008293;28;20025;-73
2022/07/14 10:51:52;;;;;;;3.88;3.42;;;;;;;32.57;38.73;98150.78;5007405;28;20028;-75
2022/07/14 10:54:30;;;;;;;4.05;3.45;;;;;;;32.64;38.44;98147.75;5007683;28;20459;-76
2022/07/14 10:57:13;;;;;;;7.65;3.28;;;;;;;32.62;38.56;98141.75;4996601;28;20033;-71
2022/07/14 10:59:43;;;;;;;4.47;3.30;;;;;;;32.78;37.32;98138.97;5007751;28;20046;-74
2022/07/14 11:02:12;;;;;;;4.47;3.25;;;;;;;33.42;36.48;98148.03;5008083;28;20056;-73
2022/07/14 11:05:12;;;;;;;4.07;3.55;;;;;;;33.54;35.29;98150.97;4990406;28;20026;-75
2022/07/14 11:07:52;;;;;;;5.03;3.25;;;;;;;33.22;35.45;98145.28;5007384;28;20033;-74
2022/07/14 11:10:18;;;;;;;3.75;2.90;;;;;;;32.52;37.12;98148.41;5007841;28;20029;-73
2022/07/14 11:13:05;;;;;;;4.95;3.40;;;;;;;32.53;37.09;98138.69;5008362;28;20018;-74
2022/07/14 11:15:41;;;;;;;3.53;3.10;;;;;;;32.41;37.23;98135.69;5005707;28;20030;-73
2022/07/14 11:18:28;;;;;;;5.07;2.88;;;;;;;32.52;36.04;98136.25;5007272;28;20044;-73
2022/07/14 11:21:11;;;;;;;6.65;3.10;;;;;;;32.18;36.34;98140.19;5007812;28;20044;-74
2022/07/14 11:23:46;;;;;;;4.35;3.13;;;;;;;32.88;35.99;98137.13;5007185;28;20034;-73
2022/07/14 11:26:33;;;;;;;5.15;3.45;;;;;;;32.48;36.30;98138.41;5007355;28;20060;-76
2022/07/14 11:29:00;;;;;;;3.60;3.17;;;;;;;32.67;36.08;98134.78;5008229;28;20124;-76
2022/07/14 11:31:25;;;;;;;6.90;2.88;;;;;;;32.96;35.92;98132.06;5007361;28;20021;-74
2022/07/14 11:36:45;;;;;;;4.07;3.00;;;;;;;32.97;35.57;98134.50;5006975;28;20057;-72
2022/07/14 11:39:16;;;;;;;5.85;3.20;;;;;;;33.23;34.90;98121.34;5006472;28;20032;-76
2022/07/14 11:41:44;;;;;;;4.65;2.72;;;;;;;33.02;35.19;98125.44;5006583;28;20504;-75
2022/07/14 11:44:40;;;;;;;4.50;3.35;;;;;;;32.27;35.47;98122.63;5006351;28;20029;-75
2022/07/14 11:47:07;;;;;;;6.22;3.30;;;;;;;32.65;34.65;98117.38;5004766;28;20037;-72